createdAt,value
2019-05-29T00:00:25.818Z,12.90
2019-05-29T00:02:57.008Z,12.20
2019-05-29T00:05:28.215Z,12.40
2019-05-29T00:07:59.319Z,12.40
2019-05-29T00:10:30.541Z,13.00
2019-05-29T00:13:01.987Z,10.03
2019-05-29T00:15:33.113Z,12.47
2019-05-29T00:18:04.438Z,15.43
2019-05-29T00:20:35.654Z,14.70
2019-05-29T00:23:06.907Z,12.03
2019-05-29T00:25:38.064Z,9.80
2019-05-29T00:28:10.612Z,11.83
2019-05-29T00:30:41.977Z,15.33
2019-05-29T00:33:14.402Z,10.70
2019-05-29T00:35:46.786Z,8.60
2019-05-29T00:38:17.923Z,12.57
2019-05-29T00:40:49.154Z,9.40
2019-05-29T00:43:20.393Z,8.40
2019-05-29T00:45:51.795Z,10.30
2019-05-29T00:48:23.191Z,8.37
2019-05-29T00:50:54.433Z,10.00
2019-05-29T00:53:25.724Z,10.00
2019-05-29T00:55:57.054Z,10.83
2019-05-29T00:58:28.254Z,13.57
2019-05-29T01:00:59.964Z,7.37
2019-05-29T01:03:31.130Z,7.00
2019-05-29T01:06:02.468Z,11.83
2019-05-29T01:08:33.641Z,12.80
2019-05-29T01:11:04.831Z,7.77
2019-05-29T01:13:36.016Z,7.53
2019-05-29T01:16:07.400Z,7.10
2019-05-29T01:18:38.634Z,7.40
2019-05-29T01:21:09.904Z,13.67
2019-05-29T01:23:41.152Z,8.83
2019-05-29T01:26:12.485Z,11.33
2019-05-29T01:28:43.784Z,19.77
2019-05-29T01:31:15.223Z,56.17
2019-05-29T01:33:46.631Z,67.50
2019-05-29T01:36:18.048Z,38.20
2019-05-29T01:38:49.372Z,28.57
2019-05-29T01:41:21.463Z,38.27
2019-05-29T01:43:52.689Z,24.83
2019-05-29T01:46:23.988Z,16.20
2019-05-29T01:48:55.128Z,8.90
2019-05-29T01:51:27.964Z,10.33
2019-05-29T01:53:59.272Z,7.50
2019-05-29T01:56:30.572Z,9.97
2019-05-29T01:59:01.806Z,9.87
2019-05-29T02:01:33.060Z,8.77
2019-05-29T02:04:04.317Z,13.43
2019-05-29T02:06:35.434Z,13.47
2019-05-29T02:09:08.106Z,8.77
2019-05-29T02:11:39.363Z,12.53
2019-05-29T02:14:11.527Z,9.20
2019-05-29T02:16:42.687Z,7.23
2019-05-29T02:19:13.829Z,9.13
2019-05-29T02:21:45.089Z,8.60
2019-05-29T02:24:17.013Z,20.23
2019-05-29T02:26:48.347Z,8.90
2019-05-29T02:29:20.805Z,18.70
2019-05-29T02:31:52.170Z,13.17
2019-05-29T02:34:25.536Z,10.30
2019-05-29T02:36:56.432Z,13.33
2019-05-29T02:39:29.218Z,10.50
2019-05-29T02:42:00.578Z,9.67
2019-05-29T02:44:31.727Z,13.50
2019-05-29T02:47:03.047Z,19.87
2019-05-29T02:49:34.600Z,11.87
2019-05-29T02:52:06.141Z,12.07
2019-05-29T02:54:37.559Z,17.60
2019-05-29T02:57:08.843Z,16.83
2019-05-29T02:59:40.083Z,16.20
2019-05-29T03:02:11.229Z,23.00
2019-05-29T03:04:42.386Z,25.87
2019-05-29T03:07:13.697Z,10.90
2019-05-29T03:09:45.247Z,13.17
2019-05-29T03:12:16.500Z,16.80
2019-05-29T03:14:47.826Z,18.60
2019-05-29T03:17:19.041Z,12.53
2019-05-29T03:19:50.181Z,15.03
2019-05-29T03:22:21.415Z,14.47
2019-05-29T03:24:53.660Z,13.80
2019-05-29T03:27:25.673Z,20.47
2019-05-29T03:29:56.859Z,15.27
2019-05-29T03:32:31.804Z,19.33
2019-05-29T03:35:01.163Z,18.40
2019-05-29T03:37:32.502Z,15.53
2019-05-29T03:40:04.320Z,14.30
2019-05-29T03:42:35.645Z,12.37
2019-05-29T03:45:07.373Z,24.77
2019-05-29T03:47:38.617Z,20.13
2019-05-29T03:50:10.056Z,24.43
2019-05-29T03:52:41.460Z,17.10
2019-05-29T03:55:12.852Z,20.30
2019-05-29T03:57:44.112Z,15.13
2019-05-29T04:00:16.845Z,13.13
2019-05-29T04:02:48.165Z,17.03
2019-05-29T04:05:19.560Z,13.63
2019-05-29T04:07:51.788Z,18.87
2019-05-29T04:10:32.889Z,23.07
2019-05-29T04:13:03.450Z,16.90
2019-05-29T04:15:36.609Z,15.80
2019-05-29T04:18:08.738Z,18.10
2019-05-29T04:20:40.120Z,17.50
2019-05-29T04:23:11.302Z,16.00
2019-05-29T04:25:43.305Z,20.97
2019-05-29T04:28:14.669Z,85.83
2019-05-29T04:30:45.925Z,22.07
2019-05-29T04:33:17.115Z,17.93
2019-05-29T04:35:48.374Z,25.90
2019-05-29T04:38:19.803Z,23.17
2019-05-29T04:40:51.254Z,23.33
2019-05-29T04:43:22.591Z,18.50
2019-05-29T04:45:53.905Z,19.70
2019-05-29T04:48:25.149Z,24.40
2019-05-29T04:50:56.421Z,18.43
2019-05-29T04:53:29.438Z,31.30
2019-05-29T04:56:00.602Z,19.97
2019-05-29T04:58:32.793Z,39.10
2019-05-29T05:01:03.967Z,20.30
2019-05-29T05:03:35.237Z,23.60
2019-05-29T05:06:06.671Z,27.20
2019-05-29T05:08:37.874Z,30.33
2019-05-29T05:11:11.465Z,21.30
2019-05-29T05:13:42.716Z,29.83
2019-05-29T05:16:13.960Z,22.40
2019-05-29T05:18:46.100Z,28.23
2019-05-29T05:21:17.262Z,21.73
2019-05-29T05:23:48.492Z,35.33
2019-05-29T05:26:19.663Z,19.30
2019-05-29T05:28:50.938Z,27.53
2019-05-29T05:31:22.115Z,29.17
2019-05-29T05:33:53.327Z,27.03
2019-05-29T05:36:24.508Z,23.93
2019-05-29T05:38:55.722Z,23.30
2019-05-29T05:41:26.855Z,22.90
2019-05-29T05:43:58.040Z,36.93
2019-05-29T05:46:29.490Z,21.83
2019-05-29T05:49:00.597Z,25.30
2019-05-29T05:51:33.361Z,26.20
2019-05-29T05:54:04.860Z,27.10
2019-05-29T05:56:35.951Z,28.53
2019-05-29T05:59:07.166Z,26.80
2019-05-29T06:01:38.394Z,34.80
2019-05-29T06:04:09.631Z,24.77
2019-05-29T06:06:42.247Z,24.10
2019-05-29T06:09:13.581Z,19.90
2019-05-29T06:11:44.863Z,24.97
2019-05-29T06:14:16.048Z,22.97
2019-05-29T06:16:47.271Z,23.60
2019-05-29T06:19:18.402Z,19.63
2019-05-29T06:21:49.764Z,26.30
2019-05-29T06:24:21.037Z,24.20
2019-05-29T06:26:52.414Z,22.17
2019-05-29T06:29:24.873Z,24.63
2019-05-29T06:31:56.419Z,24.50
2019-05-29T06:34:27.751Z,53.13
2019-05-29T06:36:58.958Z,22.77
2019-05-29T06:39:30.319Z,21.93
2019-05-29T06:42:01.586Z,20.50
2019-05-29T06:44:34.279Z,23.63
2019-05-29T06:47:05.771Z,23.73
2019-05-29T06:49:37.954Z,26.27
2019-05-29T06:52:09.380Z,29.47
2019-05-29T06:54:41.918Z,23.73
2019-05-29T06:57:13.202Z,20.00
2019-05-29T06:59:45.262Z,17.63
2019-05-29T07:02:16.561Z,35.47
2019-05-29T07:04:47.878Z,22.13
2019-05-29T07:07:19.177Z,15.33
2019-05-29T07:09:50.322Z,19.30
2019-05-29T07:12:21.489Z,110.43
2019-05-29T07:14:52.667Z,108.80
2019-05-29T07:17:23.961Z,26.03
2019-05-29T07:20:03.397Z,25.47
2019-05-29T07:22:27.951Z,15.80
2019-05-29T07:24:59.131Z,17.47
2019-05-29T07:27:30.751Z,18.87
2019-05-29T07:30:01.974Z,22.17
2019-05-29T07:32:34.262Z,21.97
2019-05-29T07:35:05.815Z,24.07
2019-05-29T07:37:37.682Z,18.57
2019-05-29T07:40:09.338Z,14.10
2019-05-29T07:42:45.336Z,14.47
2019-05-29T07:45:15.166Z,18.27
2019-05-29T07:47:46.807Z,18.83
2019-05-29T07:50:18.168Z,13.60
2019-05-29T07:52:49.476Z,15.67
2019-05-29T07:55:23.655Z,18.27
2019-05-29T07:57:53.612Z,12.33
2019-05-29T08:00:35.159Z,14.07
2019-05-29T08:53:33.982Z,8.87
2019-05-29T08:56:05.842Z,7.77
2019-05-29T08:58:37.835Z,11.63
2019-05-29T09:01:09.359Z,9.80
2019-05-29T09:03:40.491Z,8.40
2019-05-29T09:06:13.661Z,12.63
2019-05-29T09:08:46.210Z,8.17
2019-05-29T09:11:17.565Z,11.60
2019-05-29T09:13:48.869Z,13.23
2019-05-29T09:16:20.158Z,7.50
2019-05-29T09:18:51.377Z,8.63
2019-05-29T09:21:26.445Z,10.00
2019-05-29T09:23:58.628Z,8.87
2019-05-29T09:26:28.736Z,8.00
2019-05-29T09:28:59.956Z,7.30
2019-05-29T09:31:31.028Z,8.93
2019-05-29T09:34:02.181Z,9.13
2019-05-29T09:36:33.331Z,8.30
2019-05-29T09:39:05.870Z,8.07
2019-05-29T09:41:37.165Z,10.63
2019-05-29T09:44:08.819Z,8.63
2019-05-29T09:46:40.271Z,8.33
2019-05-29T09:49:11.511Z,9.63
2019-05-29T09:51:42.798Z,10.60
2019-05-29T09:54:14.056Z,7.50
2019-05-29T09:56:45.205Z,8.60
2019-05-29T09:59:17.639Z,8.17
2019-05-29T10:01:48.950Z,7.33
2019-05-29T10:04:20.041Z,11.93
2019-05-29T10:06:51.352Z,15.73
2019-05-29T10:09:22.703Z,8.50
2019-05-29T10:11:58.013Z,7.27
2019-05-29T10:14:26.892Z,14.60
2019-05-29T10:16:59.224Z,6.77
2019-05-29T10:19:31.061Z,8.07
2019-05-29T10:22:03.935Z,7.27
2019-05-29T10:24:35.335Z,6.40
2019-05-29T10:27:06.938Z,6.30
2019-05-29T10:29:38.247Z,7.10
2019-05-29T10:32:09.504Z,6.63
2019-05-29T10:34:42.159Z,7.40
2019-05-29T10:37:13.642Z,7.63
2019-05-29T10:39:44.834Z,8.60
2019-05-29T10:42:20.340Z,8.30
2019-05-29T10:44:49.266Z,8.23
2019-05-29T10:47:20.542Z,8.77
2019-05-29T10:49:51.850Z,12.30
2019-05-29T10:52:23.627Z,13.70
2019-05-29T10:54:54.928Z,13.00
2019-05-29T10:57:26.509Z,25.47
2019-05-29T10:59:57.756Z,14.53
2019-05-29T11:02:29.041Z,20.13
2019-05-29T11:05:00.334Z,14.03
2019-05-29T11:07:31.570Z,13.30
2019-05-29T11:10:02.912Z,11.67
2019-05-29T11:12:34.267Z,12.93
2019-05-29T11:15:20.845Z,19.63
2019-05-29T11:17:39.784Z,12.70
2019-05-29T11:20:11.823Z,10.10
2019-05-29T11:22:43.136Z,10.00
2019-05-29T11:25:23.371Z,8.30
2019-05-29T11:27:50.349Z,7.90
2019-05-29T11:30:22.236Z,8.67
2019-05-29T11:32:55.606Z,8.27
2019-05-29T11:35:26.442Z,8.80
2019-05-29T11:37:58.871Z,10.30
2019-05-29T11:40:30.967Z,8.20
2019-05-29T11:43:03.214Z,6.03
2019-05-29T11:45:35.851Z,6.43
2019-05-29T11:48:07.675Z,6.10
2019-05-29T11:50:38.939Z,5.63
2019-05-29T11:53:10.205Z,5.57
2019-05-29T11:55:41.453Z,7.30
2019-05-29T11:58:29.772Z,6.13
2019-05-29T12:00:45.715Z,5.17
2019-05-29T12:03:16.925Z,5.53
2019-05-29T12:05:48.296Z,4.77
2019-05-29T12:08:19.410Z,6.40
2019-05-29T12:10:51.288Z,6.30
2019-05-29T12:13:22.859Z,3.97
2019-05-29T12:15:54.162Z,5.10
2019-05-29T12:18:25.428Z,5.40
2019-05-29T12:20:58.282Z,4.47
2019-05-29T12:23:29.535Z,5.10
2019-05-29T12:26:20.965Z,5.37
2019-05-29T12:28:33.884Z,5.30
2019-05-29T12:31:05.068Z,5.17
2019-05-29T12:33:36.407Z,6.03
2019-05-29T12:36:07.727Z,5.27
2019-05-29T12:38:38.971Z,6.07
2019-05-29T12:41:10.300Z,5.93
2019-05-29T12:43:41.456Z,6.47
2019-05-29T12:46:12.710Z,5.97
2019-05-29T12:48:44.012Z,8.63
2019-05-29T12:51:15.268Z,6.17
2019-05-29T12:53:46.537Z,6.73
2019-05-29T12:56:17.800Z,6.20
2019-05-29T12:58:49.083Z,6.37
2019-05-29T13:01:20.371Z,6.70
2019-05-29T13:03:51.700Z,10.20
2019-05-29T13:06:23.197Z,7.27
2019-05-29T13:08:54.717Z,6.93
2019-05-29T13:11:26.074Z,6.10
2019-05-29T13:13:58.381Z,8.23
2019-05-29T13:16:29.822Z,9.73
2019-05-29T13:19:01.157Z,17.23
2019-05-29T13:21:32.581Z,10.13
2019-05-29T13:24:08.014Z,10.27
2019-05-29T13:26:36.953Z,12.70
2019-05-29T13:29:08.663Z,13.33
2019-05-29T13:31:42.613Z,8.67
2019-05-29T13:34:13.981Z,8.97
2019-05-29T13:36:45.386Z,8.67
2019-05-29T13:39:16.658Z,8.57
2019-05-29T13:41:47.947Z,7.90
2019-05-29T13:44:19.243Z,9.80
2019-05-29T13:46:50.539Z,12.07
2019-05-29T13:49:21.746Z,9.47
2019-05-29T13:51:53.096Z,8.97
2019-05-29T13:54:24.464Z,8.40
2019-05-29T13:56:55.796Z,8.50
2019-05-29T13:59:27.101Z,8.33
2019-05-29T14:01:58.533Z,8.33
2019-05-29T14:04:29.729Z,13.00
2019-05-29T14:07:01.023Z,8.40
2019-05-29T14:09:32.405Z,12.03
2019-05-29T14:12:05.080Z,14.03
2019-05-29T14:14:36.485Z,9.70
2019-05-29T14:17:08.786Z,9.83
2019-05-29T14:19:40.132Z,8.10
2019-05-29T14:22:11.412Z,12.70
2019-05-29T14:24:42.778Z,8.87
2019-05-29T14:27:13.931Z,11.10
2019-05-29T14:29:45.248Z,10.03
2019-05-29T14:32:16.372Z,8.73
2019-05-29T14:34:48.605Z,8.70
2019-05-29T14:37:19.799Z,9.73
2019-05-29T14:39:51.031Z,8.67
2019-05-29T14:42:22.386Z,17.50
2019-05-29T14:44:53.601Z,7.77
2019-05-29T14:47:24.952Z,7.73
2019-05-29T14:49:56.220Z,7.20
2019-05-29T14:52:27.393Z,7.03
2019-05-29T14:54:58.713Z,6.70
2019-05-29T14:57:29.989Z,7.00
2019-05-29T15:00:03.542Z,10.50
2019-05-29T15:02:34.315Z,7.30
2019-05-29T15:05:07.730Z,6.30
2019-05-29T15:07:39.259Z,7.77
2019-05-29T15:10:22.661Z,5.60
2019-05-29T15:12:45.009Z,5.80
2019-05-29T15:15:16.965Z,5.77
2019-05-29T15:17:48.579Z,5.17
2019-05-29T15:20:20.098Z,6.30
2019-05-29T15:22:51.982Z,4.60
2019-05-29T15:25:24.468Z,4.03
2019-05-29T15:27:55.676Z,5.67
2019-05-29T15:30:26.931Z,6.53
2019-05-29T15:32:58.405Z,5.67
2019-05-29T15:35:29.626Z,5.07
2019-05-29T15:38:00.753Z,11.60
2019-05-29T15:40:32.091Z,4.70
2019-05-29T15:43:03.371Z,3.83
2019-05-29T15:45:34.562Z,4.27
2019-05-29T15:48:06.977Z,5.40
2019-05-29T15:50:38.498Z,4.80
2019-05-29T15:53:10.933Z,4.90
2019-05-29T15:55:42.326Z,8.97
2019-05-29T15:58:13.541Z,4.80
2019-05-29T16:00:44.759Z,5.73
2019-05-29T16:03:15.960Z,5.00
2019-05-29T16:05:47.268Z,6.03
2019-05-29T16:08:18.455Z,5.70
2019-05-29T16:10:49.717Z,4.83
2019-05-29T16:13:20.963Z,6.13
2019-05-29T16:15:52.194Z,5.70
2019-05-29T16:18:29.147Z,5.40
2019-05-29T16:20:56.989Z,5.10
2019-05-29T16:23:35.643Z,5.03
2019-05-29T16:26:01.035Z,7.00
2019-05-29T16:28:32.135Z,5.07
2019-05-29T16:31:03.321Z,4.70
2019-05-29T16:33:34.459Z,7.97
2019-05-29T16:36:05.808Z,4.63
2019-05-29T16:38:37.057Z,4.50
2019-05-29T16:41:08.213Z,5.87
2019-05-29T16:43:39.588Z,6.20
2019-05-29T16:46:14.188Z,6.47
2019-05-29T16:48:43.675Z,5.53
2019-05-29T16:51:14.920Z,5.57
2019-05-29T16:53:45.981Z,5.60
2019-05-29T16:56:16.980Z,9.77
2019-05-29T16:58:48.212Z,10.30
2019-05-29T17:01:19.566Z,6.73
2019-05-29T17:03:51.126Z,9.87
2019-05-29T17:06:22.595Z,11.30
2019-05-29T17:08:55.333Z,8.37
2019-05-29T17:11:28.959Z,9.83
2019-05-29T17:14:02.139Z,10.90
2019-05-29T17:16:33.735Z,10.20
2019-05-29T17:19:06.176Z,11.10
2019-05-29T17:21:37.425Z,12.27
2019-05-29T17:24:08.894Z,13.63
2019-05-29T17:26:40.096Z,11.53
2019-05-29T17:29:11.179Z,11.70
2019-05-29T17:31:42.226Z,11.77
2019-05-29T17:34:14.839Z,12.27
2019-05-29T17:36:46.210Z,11.30
2019-05-29T17:39:17.446Z,12.30
2019-05-29T17:41:48.708Z,11.57
2019-05-29T17:44:19.854Z,8.93
2019-05-29T17:46:51.020Z,8.20
2019-05-29T17:49:32.221Z,7.73
2019-05-29T17:51:55.064Z,7.53
2019-05-29T17:54:26.461Z,8.23
2019-05-29T17:56:59.109Z,7.50
2019-05-29T17:59:30.328Z,8.03
2019-05-29T18:02:01.436Z,7.03
2019-05-29T18:04:32.626Z,6.50
2019-05-29T18:07:03.726Z,7.87
2019-05-29T18:09:35.341Z,6.90
2019-05-29T18:12:06.587Z,5.70
2019-05-29T18:14:38.311Z,5.27
2019-05-29T18:17:09.890Z,6.00
2019-05-29T18:19:41.186Z,6.40
2019-05-29T18:22:12.517Z,7.37
2019-05-29T18:24:43.686Z,7.50
2019-05-29T18:27:14.896Z,6.67
2019-05-29T18:29:46.245Z,7.10
2019-05-29T18:32:18.546Z,10.43
2019-05-29T18:34:53.683Z,8.50
2019-05-29T18:37:24.093Z,8.43
2019-05-29T18:39:55.574Z,8.63
2019-05-29T18:42:27.349Z,7.57
2019-05-29T18:44:58.773Z,8.60
2019-05-29T18:47:29.871Z,7.73
2019-05-29T18:50:02.351Z,8.40
2019-05-29T18:52:33.504Z,19.30
2019-05-29T18:55:05.198Z,7.63
2019-05-29T18:57:36.377Z,8.23
2019-05-29T19:00:08.245Z,7.70
2019-05-29T19:02:39.737Z,7.53
2019-05-29T19:05:12.254Z,7.67
2019-05-29T19:07:43.484Z,7.27
2019-05-29T19:10:16.264Z,8.00
2019-05-29T19:12:47.409Z,14.50
2019-05-29T19:15:19.049Z,12.73
2019-05-29T19:17:50.290Z,14.57
2019-05-29T19:20:22.224Z,10.93
2019-05-29T19:22:53.605Z,9.60
2019-05-29T19:25:24.925Z,8.57
2019-05-29T19:27:56.062Z,8.27
2019-05-29T19:30:29.274Z,8.23
2019-05-29T19:33:00.727Z,9.40
2019-05-29T19:35:31.940Z,9.27
2019-05-29T19:38:03.190Z,8.40
2019-05-29T19:40:34.693Z,9.33
2019-05-29T19:43:15.382Z,9.63
2019-05-29T19:45:46.758Z,8.63
2019-05-29T19:48:17.852Z,8.00
2019-05-29T19:50:48.995Z,8.07
2019-05-29T19:53:20.229Z,8.67
2019-05-29T19:55:51.501Z,8.80
2019-05-29T19:58:22.783Z,8.77
2019-05-29T20:00:53.937Z,8.20
2019-05-29T20:03:26.320Z,8.90
2019-05-29T20:05:57.998Z,6.40
2019-05-29T20:08:32.635Z,7.03
2019-05-29T20:11:01.983Z,7.93
2019-05-29T20:13:33.762Z,7.77
2019-05-29T20:16:05.030Z,8.97
2019-05-29T20:18:36.230Z,11.17
2019-05-29T20:21:07.419Z,8.87
2019-05-29T20:23:38.928Z,8.10
2019-05-29T20:26:10.114Z,9.90
2019-05-29T20:28:42.348Z,7.93
2019-05-29T20:31:13.862Z,9.90
2019-05-29T20:33:45.047Z,7.70
2019-05-29T20:36:16.296Z,10.20
2019-05-29T20:38:47.399Z,7.70
2019-05-29T20:41:18.488Z,6.80
2019-05-29T20:43:49.532Z,7.10
2019-05-29T20:46:20.635Z,5.90
2019-05-29T20:48:51.661Z,7.73
2019-05-29T20:51:22.800Z,6.97
2019-05-29T20:53:53.847Z,7.50
2019-05-29T20:56:25.050Z,9.30
2019-05-29T20:58:56.318Z,7.77
2019-05-29T21:01:27.537Z,7.90
2019-05-29T21:03:58.614Z,6.67
2019-05-29T21:06:29.735Z,8.20
2019-05-29T21:09:00.896Z,9.37
2019-05-29T21:11:33.407Z,9.23
2019-05-29T21:14:04.665Z,7.93
2019-05-29T21:16:35.834Z,8.87
2019-05-29T21:19:06.969Z,7.90
2019-05-29T21:21:38.322Z,8.83
2019-05-29T21:24:09.629Z,7.87
2019-05-29T21:26:41.054Z,14.30
2019-05-29T21:29:12.255Z,8.30
2019-05-29T21:31:45.677Z,8.20
2019-05-29T21:34:16.808Z,9.30
2019-05-29T21:36:47.947Z,8.00
2019-05-29T21:39:19.147Z,8.07
2019-05-29T21:41:50.329Z,13.00
2019-05-29T21:44:21.424Z,7.00
2019-05-29T21:46:53.418Z,7.70
2019-05-29T21:49:24.615Z,7.93
2019-05-29T21:51:55.766Z,6.70
2019-05-29T21:54:26.890Z,7.80
2019-05-29T21:56:58.152Z,7.30
2019-05-29T21:59:29.177Z,9.03
2019-05-29T22:02:00.490Z,7.37
2019-05-29T22:04:31.670Z,6.50
2019-05-29T22:07:02.850Z,8.87
2019-05-29T22:09:33.944Z,7.50
2019-05-29T22:12:05.391Z,6.67
2019-05-29T22:14:36.634Z,5.83
2019-05-29T22:17:07.804Z,6.07
2019-05-29T22:19:39.038Z,5.63
2019-05-29T22:22:10.137Z,5.40
2019-05-29T22:24:41.294Z,5.20
2019-05-29T22:27:12.487Z,5.90
2019-05-29T22:29:43.618Z,6.27
2019-05-29T22:32:14.737Z,5.00
2019-05-29T22:34:45.970Z,4.60
2019-05-29T22:37:17.006Z,8.20
2019-05-29T22:39:48.088Z,5.50
2019-05-29T22:42:19.198Z,5.67
2019-05-29T22:44:51.523Z,5.77
2019-05-29T22:47:22.657Z,5.47
2019-05-29T22:49:54.024Z,4.70
2019-05-29T22:52:25.332Z,5.23
2019-05-29T22:54:57.878Z,5.70
2019-05-29T22:57:29.196Z,5.43
2019-05-29T23:00:00.353Z,6.00
2019-05-29T23:02:31.490Z,5.70
2019-05-29T23:05:03.704Z,5.47
2019-05-29T23:07:36.181Z,6.67
2019-05-29T23:10:08.703Z,5.47
2019-05-29T23:12:39.846Z,7.00
2019-05-29T23:15:11.524Z,5.90
2019-05-29T23:17:42.699Z,7.17
2019-05-29T23:20:15.502Z,11.00
2019-05-29T23:22:46.675Z,7.90
2019-05-29T23:25:17.883Z,12.80
2019-05-29T23:27:49.149Z,7.63
2019-05-29T23:30:21.524Z,9.00
2019-05-29T23:32:52.908Z,8.70
2019-05-29T23:35:24.330Z,8.43
2019-05-29T23:37:55.424Z,9.93
2019-05-29T23:40:26.577Z,11.10
2019-05-29T23:42:57.681Z,8.57
2019-05-29T23:45:28.888Z,9.00
2019-05-29T23:48:00.080Z,10.80
2019-05-29T23:50:31.280Z,10.53
2019-05-29T23:53:02.322Z,13.17
2019-05-29T23:55:33.640Z,11.80
2019-05-29T23:58:08.185Z,11.87
